Morrisonville, WI (53571)

5:24 AM CST on January 25, 2015 (GMT -0600)
Wx9TRS | Change Station
CLOSE
Current Station
Personal Weather Station
Location: DeForest, WI
Elevation: 945 ft
Nearby Weather Stations

Elev 945 ft 43.25 °N, 89.36 °W | Updated 8 seconds ago

Snow
Snow
24.1 °F
Feels Like 16 °F
N
6.8
Wind Variable Wind from ENE
Gusts 9.2 mph

Today
High -- | Low -- °F
--% Chance of Precip.
Yesterday
High -- | Low -- °F
Precip. -- in
7:20 AM 4:59 PM
Waxing Crescent, 31% visible
Pressure 29.79 in
Visibility 6.0 miles
Clouds Overcast 1500 ft
Windchill 16 °F
Dew Point 22 °F
Humidity 91%
Rainfall 0.00 in
Snow Depth Not available.
UV 0 out of 12
Pollen .10 out of 12
Air Quality Not available.
Flu Activity Not available.
METAR KMSN 251053Z AUTO 05018G23KT 6SM -SN OVC015 M03/M06 A2976 RMK AO2 SNB13 SLP086 P0000 T10331061

More Conditions Fewer Conditions

Pressure 29.79 in
Visibility 6.0 miles
Clouds Overcast 1500 ft
Windchill 16 °F
Dew Point 22 °F
Humidity 91%
Rainfall 0.00 in
Snow Depth Not available.
UV 0 out of 12
Pollen .10 out of 12
Air Quality Not available.
Flu Activity Not available.
METAR KMSN 251053Z AUTO 05018G23KT 6SM -SN OVC015 M03/M06 A2976 RMK AO2 SNB13 SLP086 P0000 T10331061

More Conditions Fewer Conditions

10-Day Weather Forecast

Almanac

Astronomy

Jan. 25, 2015 Rise Set
Actual Time
Civil Twilight
Nautical Twilight
Astronomical Twilight
Moon
Length of Visible Light
Length of Day
Tomorrow will be .
, % of the Moon is Illuminated

Today's Extremes

State Highs State Lows

Community

WunderPhotos

Upload Photos

1,789,869 photos uploaded!

WunderBlogs® & News

Nearby

Air Quality

  Air Quality AQ Index Pollutant
Not available.

Snow Depth

Station Depth Elevation

Earthquake Activity

City Distance Mag. Time & Date
Minimum magnitude displayed is 2.5.

Coastal Water Temperatures

Place Temperature

Nearby Weather Stations